createdAt,value
2023-02-17T00:01:27.456Z,101456.28
2023-02-17T00:03:55.483Z,101459.78
2023-02-17T00:06:29.405Z,101458.81
2023-02-17T00:08:58.000Z,101460.78
2023-02-17T00:11:25.474Z,101454.25
2023-02-17T00:13:56.143Z,101452.03
2023-02-17T00:16:25.394Z,101445.78
2023-02-17T00:18:54.867Z,101445.91
2023-02-17T00:21:23.961Z,101444.19
2023-02-17T00:23:53.330Z,101434.22
2023-02-17T00:26:21.518Z,101441.84
2023-02-17T00:28:49.596Z,101440.56
2023-02-17T00:31:20.018Z,101432.50
2023-02-17T00:33:47.713Z,101428.34
2023-02-17T00:36:17.685Z,101421.13
2023-02-17T00:38:45.232Z,101425.44
2023-02-17T00:41:14.042Z,101440.63
2023-02-17T00:43:41.494Z,101438.53
2023-02-17T00:46:09.328Z,101442.88
2023-02-17T00:48:36.944Z,101437.06
2023-02-17T00:51:04.782Z,101439.59
2023-02-17T00:53:32.335Z,101438.22
2023-02-17T00:55:59.967Z,101436.56
2023-02-17T00:58:28.983Z,101445.44
2023-02-17T01:00:56.957Z,101434.72
2023-02-17T01:03:25.080Z,101432.94
2023-02-17T01:05:52.800Z,101439.53
2023-02-17T01:08:20.257Z,101448.16
2023-02-17T01:10:48.691Z,101447.13
2023-02-17T01:13:17.500Z,101454.78
2023-02-17T01:15:48.683Z,101455.19
2023-02-17T01:18:16.460Z,101456.50
2023-02-17T01:20:44.475Z,101450.81
2023-02-17T01:23:12.876Z,101455.97
2023-02-17T01:25:41.332Z,101457.97
2023-02-17T01:28:09.663Z,101439.59
2023-02-17T01:30:37.118Z,101433.78
2023-02-17T01:33:06.023Z,101428.91
2023-02-17T01:35:34.374Z,101441.16
2023-02-17T01:38:01.953Z,101434.06
2023-02-17T01:40:30.177Z,101433.78
2023-02-17T01:42:57.703Z,101426.44
2023-02-17T01:45:35.245Z,101424.34
2023-02-17T01:48:08.988Z,101422.84
2023-02-17T01:50:40.353Z,101419.50
2023-02-17T01:53:08.982Z,101404.88
2023-02-17T01:55:38.672Z,101401.13
2023-02-17T01:58:08.754Z,101398.47
2023-02-17T02:00:36.993Z,101395.44
2023-02-17T02:03:05.533Z,101399.59
2023-02-17T02:05:36.540Z,101389.03
2023-02-17T02:08:05.628Z,101385.97
2023-02-17T02:10:33.139Z,101376.09
2023-02-17T02:13:00.898Z,101377.06
2023-02-17T02:15:32.883Z,101367.47
2023-02-17T02:18:22.946Z,101367.06
2023-02-17T02:21:19.627Z,101360.91
2023-02-17T02:23:54.269Z,101356.44
2023-02-17T02:26:59.138Z,101351.31
2023-02-17T02:29:47.739Z,101343.41
2023-02-17T02:32:40.886Z,101348.94
2023-02-17T02:35:10.874Z,101342.41
2023-02-17T02:37:42.024Z,101337.81
2023-02-17T02:40:11.704Z,101335.31
2023-02-17T02:42:40.188Z,101345.06
2023-02-17T02:45:09.189Z,101344.06
2023-02-17T02:47:44.422Z,101332.25
2023-02-17T02:50:13.457Z,101329.47
2023-02-17T02:52:49.283Z,101323.88
2023-02-17T02:55:20.259Z,101318.44
2023-02-17T02:57:53.788Z,101322.22
2023-02-17T03:00:25.178Z,101313.28
2023-02-17T03:02:57.206Z,101313.28
2023-02-17T03:05:29.768Z,101323.59
2023-02-17T03:08:00.307Z,101308.84
2023-02-17T03:10:27.822Z,101303.94
2023-02-17T03:12:55.326Z,101308.81
2023-02-17T03:15:27.018Z,101300.97
2023-02-17T03:17:57.455Z,101308.78
2023-02-17T03:20:25.031Z,101312.41
2023-02-17T03:22:52.608Z,101314.19
2023-02-17T03:25:20.161Z,101319.34
2023-02-17T03:27:47.677Z,101328.22
2023-02-17T03:30:15.293Z,101303.88
2023-02-17T03:32:42.902Z,101309.88
2023-02-17T03:35:12.055Z,101309.19
2023-02-17T03:37:39.584Z,101314.25
2023-02-17T03:40:09.023Z,101314.09
2023-02-17T03:42:37.009Z,101311.47
2023-02-17T03:45:04.726Z,101302.91
2023-02-17T03:47:32.606Z,101299.44
2023-02-17T03:50:00.083Z,101302.22
2023-02-17T03:52:28.946Z,101297.22
2023-02-17T03:54:56.400Z,101301.69
2023-02-17T03:57:23.907Z,101300.25
2023-02-17T03:59:51.578Z,101293.13
2023-02-17T04:02:19.052Z,101299.44
2023-02-17T04:04:46.536Z,101284.50
2023-02-17T04:07:14.292Z,101296.75
2023-02-17T04:09:43.223Z,101302.88
2023-02-17T04:12:10.710Z,101292.66
2023-02-17T04:14:38.161Z,101296.00
2023-02-17T04:17:05.630Z,101301.84
2023-02-17T04:19:33.082Z,101300.84
2023-02-17T04:22:00.517Z,101296.59
2023-02-17T04:24:27.995Z,101282.06
2023-02-17T04:26:56.821Z,101293.97
2023-02-17T04:29:24.294Z,101294.50
2023-02-17T04:31:51.886Z,101289.19
2023-02-17T04:34:19.464Z,101292.25
2023-02-17T04:36:46.928Z,101294.09
2023-02-17T04:39:14.420Z,101296.94
2023-02-17T04:41:41.883Z,101297.44
2023-02-17T04:44:11.560Z,101296.06
2023-02-17T04:46:39.179Z,101300.31
2023-02-17T04:49:06.787Z,101295.06
2023-02-17T04:51:34.371Z,101300.00
2023-02-17T04:54:02.546Z,101298.63
2023-02-17T04:56:30.207Z,101298.31
2023-02-17T04:58:57.962Z,101293.72
2023-02-17T05:01:27.023Z,101288.16
2023-02-17T05:03:55.125Z,101285.34
2023-02-17T05:06:23.929Z,101291.22
2023-02-17T05:08:53.603Z,101296.75
2023-02-17T05:11:21.500Z,101289.25
2023-02-17T05:13:49.913Z,101294.41
2023-02-17T05:16:17.893Z,101292.16
2023-02-17T05:18:46.800Z,101295.13
2023-02-17T05:21:14.298Z,101285.81
2023-02-17T05:23:42.174Z,101281.84
2023-02-17T05:26:10.187Z,101285.81
2023-02-17T05:28:38.177Z,101291.84
2023-02-17T05:31:06.523Z,101289.22
2023-02-17T05:33:34.124Z,101288.88
2023-02-17T05:36:05.601Z,101290.53
2023-02-17T05:38:34.718Z,101292.56
2023-02-17T05:41:02.365Z,101294.84
2023-02-17T05:43:29.918Z,101296.38
2023-02-17T05:45:57.418Z,101292.88
2023-02-17T05:48:24.923Z,101297.19
2023-02-17T05:50:52.412Z,101308.50
2023-02-17T05:53:21.416Z,101313.72
2023-02-17T05:55:48.971Z,101304.22
2023-02-17T05:58:16.442Z,101302.59
2023-02-17T06:00:43.932Z,101310.06
2023-02-17T06:03:11.461Z,101297.94
2023-02-17T06:05:39.237Z,101300.25
2023-02-17T06:08:07.135Z,101297.97
2023-02-17T06:10:35.990Z,101295.13
2023-02-17T06:13:03.490Z,101286.63
2023-02-17T06:15:31.177Z,101278.69
2023-02-17T06:17:58.637Z,101289.84
2023-02-17T06:20:26.140Z,101286.19
2023-02-17T06:22:53.616Z,101299.69
2023-02-17T06:25:21.079Z,101289.84
2023-02-17T06:27:49.924Z,101285.88
2023-02-17T06:30:17.558Z,101290.88
2023-02-17T06:32:45.110Z,101281.75
2023-02-17T06:35:12.601Z,101286.34
2023-02-17T06:37:40.093Z,101297.50
2023-02-17T06:40:08.774Z,101299.22
2023-02-17T06:42:36.306Z,101297.72
2023-02-17T06:45:06.130Z,101299.69
2023-02-17T06:47:33.675Z,101304.00
2023-02-17T06:50:01.197Z,101307.34
2023-02-17T06:52:28.973Z,101315.69
2023-02-17T06:54:56.519Z,101315.47
2023-02-17T06:57:24.544Z,101321.31
2023-02-17T06:59:52.043Z,101324.63
2023-02-17T07:02:21.155Z,101313.50
2023-02-17T07:04:49.048Z,101317.97
2023-02-17T07:07:16.629Z,101310.00
2023-02-17T07:09:44.491Z,101318.34
2023-02-17T07:12:12.008Z,101324.00
2023-02-17T07:14:39.603Z,101331.13
2023-02-17T07:17:07.163Z,101323.31
2023-02-17T07:19:35.995Z,101324.00
2023-02-17T07:22:03.676Z,101323.66
2023-02-17T07:24:31.187Z,101322.00
2023-02-17T07:26:58.662Z,101321.00
2023-02-17T07:29:26.131Z,101318.03
2023-02-17T07:31:53.800Z,101302.63
2023-02-17T07:34:22.746Z,101316.09
2023-02-17T07:36:51.558Z,101320.06
2023-02-17T07:39:19.012Z,101333.34
2023-02-17T07:41:46.597Z,101330.38
2023-02-17T07:44:14.558Z,101330.59
2023-02-17T07:46:42.083Z,101320.75
2023-02-17T07:49:09.806Z,101318.09
2023-02-17T07:51:37.309Z,101322.78
2023-02-17T07:54:06.661Z,101324.06
2023-02-17T07:56:34.144Z,101327.41
2023-02-17T07:59:01.684Z,101322.25
2023-02-17T08:01:29.161Z,101328.41
2023-02-17T08:03:57.384Z,101329.44
2023-02-17T08:06:26.215Z,101316.13
2023-02-17T08:09:12.112Z,101313.00
2023-02-17T08:11:59.360Z,101321.63
2023-02-17T08:14:29.039Z,101316.97
2023-02-17T08:16:56.744Z,101312.03
2023-02-17T08:19:27.197Z,101307.25
2023-02-17T08:22:00.002Z,101306.59
2023-02-17T08:24:27.594Z,101312.56
2023-02-17T08:26:56.660Z,101306.06
2023-02-17T08:29:24.218Z,101319.25
2023-02-17T08:31:53.558Z,101324.25
2023-02-17T08:34:21.194Z,101314.94
2023-02-17T08:36:48.880Z,101313.28
2023-02-17T08:39:18.600Z,101318.25
2023-02-17T08:41:46.589Z,101326.97
2023-02-17T08:44:17.623Z,101324.63
2023-02-17T08:46:47.899Z,101315.81
2023-02-17T08:49:16.123Z,101313.81
2023-02-17T08:51:44.109Z,101313.69
2023-02-17T08:54:11.967Z,101303.19
2023-02-17T08:56:40.513Z,101313.00
2023-02-17T08:59:09.299Z,101324.63
2023-02-17T09:01:38.327Z,101326.00
2023-02-17T09:04:07.610Z,101329.47
2023-02-17T09:06:36.566Z,101332.47
2023-02-17T09:09:04.843Z,101331.31
2023-02-17T09:11:32.356Z,101330.66
2023-02-17T09:13:59.940Z,101326.47
2023-02-17T09:16:27.624Z,101326.63
2023-02-17T09:18:56.638Z,101330.31
2023-02-17T09:21:24.366Z,101336.63
2023-02-17T09:23:53.656Z,101344.63
2023-02-17T09:26:21.573Z,101342.09
2023-02-17T09:28:49.467Z,101344.09
2023-02-17T09:31:19.241Z,101345.75
2023-02-17T09:33:48.321Z,101341.63
2023-02-17T09:36:19.019Z,101345.75
2023-02-17T09:38:46.640Z,101348.25
2023-02-17T09:41:19.460Z,101358.41
2023-02-17T09:43:47.014Z,101352.91
2023-02-17T09:46:18.152Z,101352.91
2023-02-17T09:48:47.781Z,101352.09
2023-02-17T09:51:22.160Z,101352.78
2023-02-17T09:53:53.149Z,101358.91
2023-02-17T09:56:24.713Z,101360.44
2023-02-17T09:58:54.980Z,101361.09
2023-02-17T10:01:25.531Z,101361.78
2023-02-17T10:04:07.443Z,101373.25
2023-02-17T10:06:38.490Z,101358.28
2023-02-17T10:09:12.830Z,101368.59
2023-02-17T10:11:43.497Z,101371.59
2023-02-17T10:14:13.661Z,101356.44
2023-02-17T10:16:47.030Z,101360.94
2023-02-17T10:19:18.325Z,101356.47
2023-02-17T10:21:50.628Z,101351.94
2023-02-17T10:24:18.133Z,101362.78
2023-02-17T10:26:54.555Z,101360.28
2023-02-17T10:29:32.879Z,101357.47
2023-02-17T10:32:12.553Z,101341.97
2023-02-17T10:34:44.013Z,101350.25
2023-02-17T10:37:15.807Z,101343.78
2023-02-17T10:39:48.427Z,101352.94
2023-02-17T10:42:22.307Z,101343.25
2023-02-17T10:44:51.300Z,101340.25
2023-02-17T10:47:19.115Z,101338.03
2023-02-17T10:49:49.494Z,101330.19
2023-02-17T10:52:19.885Z,101333.78
2023-02-17T10:54:51.840Z,101327.81
2023-02-17T10:57:21.005Z,101331.75
2023-02-17T10:59:49.479Z,101321.22
2023-02-17T11:02:19.918Z,101328.03
2023-02-17T11:04:49.741Z,101324.75
2023-02-17T11:07:20.220Z,101324.56
2023-02-17T11:09:49.265Z,101319.47
2023-02-17T11:12:20.416Z,101319.69
2023-02-17T11:14:49.820Z,101314.94
2023-02-17T11:17:22.828Z,101303.44
2023-02-17T11:19:59.216Z,101309.41
2023-02-17T11:22:35.302Z,101304.31
2023-02-17T11:25:06.463Z,101298.72
2023-02-17T11:27:33.981Z,101295.13
2023-02-17T11:30:10.794Z,101306.22
2023-02-17T11:32:38.384Z,101294.88
2023-02-17T11:35:06.289Z,101291.75
2023-02-17T11:37:39.206Z,101291.03
2023-02-17T11:40:26.050Z,101292.81
2023-02-17T11:42:58.372Z,101301.38
2023-02-17T11:45:27.541Z,101297.88
2023-02-17T11:48:06.150Z,101296.41
2023-02-17T11:50:41.709Z,101282.13
2023-02-17T11:53:24.941Z,101281.75
2023-02-17T11:56:03.338Z,101286.06
2023-02-17T11:58:40.216Z,101292.38
2023-02-17T12:01:21.283Z,101280.34
2023-02-17T12:04:05.536Z,101275.75
2023-02-17T12:06:39.838Z,101260.44
2023-02-17T12:09:16.176Z,101264.81
2023-02-17T12:11:48.892Z,101280.91
2023-02-17T12:14:44.238Z,101267.25
2023-02-17T12:17:18.110Z,101268.34
2023-02-17T12:19:51.057Z,101270.00
2023-02-17T12:22:20.321Z,101264.66
2023-02-17T12:25:16.810Z,101259.97
2023-02-17T12:27:51.710Z,101267.97
2023-02-17T12:30:27.905Z,101261.66
2023-02-17T12:33:09.800Z,101266.84
2023-02-17T12:35:44.016Z,101239.44
2023-02-17T12:38:13.255Z,101251.34
2023-02-17T12:40:46.103Z,101236.78
2023-02-17T12:43:23.859Z,101239.47
2023-02-17T12:45:52.405Z,101223.59
2023-02-17T12:48:26.730Z,101218.91
2023-02-17T12:50:58.992Z,101212.91
2023-02-17T12:53:34.682Z,101215.50
2023-02-17T12:56:05.891Z,101208.47
2023-02-17T12:58:34.247Z,101213.53
2023-02-17T13:01:07.199Z,101212.19
2023-02-17T13:03:36.147Z,101225.47
2023-02-17T13:06:07.437Z,101227.47
2023-02-17T13:08:38.170Z,101236.16
2023-02-17T13:11:11.738Z,101233.53
2023-02-17T13:13:39.290Z,101227.44
2023-02-17T13:16:11.136Z,101228.88
2023-02-17T13:18:40.383Z,101225.31
2023-02-17T13:21:20.398Z,101232.00
2023-02-17T13:24:00.860Z,101217.16
2023-02-17T13:26:31.766Z,101226.63
2023-02-17T13:29:22.292Z,101227.28
2023-02-17T13:31:52.399Z,101232.53
2023-02-17T13:34:32.726Z,101208.47
2023-02-17T13:37:03.352Z,101212.56
2023-02-17T13:39:36.848Z,101226.13
2023-02-17T13:42:25.526Z,101213.81
2023-02-17T13:44:53.084Z,101228.78
2023-02-17T13:47:32.574Z,101220.22
2023-02-17T13:50:00.047Z,101224.28
2023-02-17T13:52:29.120Z,101229.91
2023-02-17T13:54:58.849Z,101217.41
2023-02-17T13:57:30.188Z,101215.44
2023-02-17T14:00:07.681Z,101212.66
2023-02-17T14:02:38.465Z,101207.53
2023-02-17T14:05:15.949Z,101207.72
2023-02-17T14:07:43.436Z,101215.16
2023-02-17T14:10:19.141Z,101212.28
2023-02-17T14:12:48.961Z,101210.13
2023-02-17T14:15:18.026Z,101196.75
2023-02-17T14:17:45.707Z,101199.59
2023-02-17T14:20:30.364Z,101193.94
2023-02-17T14:23:04.781Z,101191.84
2023-02-17T14:25:35.113Z,101187.03
2023-02-17T14:28:04.580Z,101178.66
2023-02-17T14:30:35.423Z,101180.47
2023-02-17T14:33:07.815Z,101175.84
2023-02-17T14:35:36.115Z,101177.78
2023-02-17T14:38:20.651Z,101183.59
2023-02-17T14:40:48.295Z,101179.00
2023-02-17T14:43:17.231Z,101182.69
2023-02-17T14:45:44.699Z,101183.81
2023-02-17T14:48:12.265Z,101188.50
2023-02-17T14:50:42.387Z,101184.72
2023-02-17T14:53:13.206Z,101184.81
2023-02-17T14:55:45.584Z,101188.88
2023-02-17T14:58:20.984Z,101186.13
2023-02-17T15:00:48.984Z,101189.91
2023-02-17T15:03:16.510Z,101192.22
2023-02-17T15:05:44.220Z,101201.59
2023-02-17T15:08:14.324Z,101195.88
2023-02-17T15:10:41.899Z,101204.56
2023-02-17T15:13:12.266Z,101199.41
2023-02-17T15:15:44.737Z,101203.00
2023-02-17T15:18:12.703Z,101213.31
2023-02-17T15:20:42.531Z,101218.47
2023-02-17T15:23:13.089Z,101220.13
2023-02-17T15:25:40.668Z,101220.25
2023-02-17T15:28:08.357Z,101222.75
2023-02-17T15:30:37.421Z,101220.91
2023-02-17T15:33:09.882Z,101225.78
2023-02-17T15:35:37.448Z,101226.69
2023-02-17T15:38:05.103Z,101221.47
2023-02-17T15:40:34.697Z,101216.31
2023-02-17T15:43:03.485Z,101219.59
2023-02-17T15:45:31.646Z,101213.44
2023-02-17T15:48:08.821Z,101220.81
2023-02-17T15:50:40.139Z,101204.03
2023-02-17T15:53:07.794Z,101204.38
2023-02-17T15:55:36.113Z,101193.88
2023-02-17T15:58:05.236Z,101193.69
2023-02-17T16:00:34.514Z,101199.41
2023-02-17T16:03:02.534Z,101217.09
2023-02-17T16:05:30.933Z,101219.59
2023-02-17T16:08:00.049Z,101230.41
2023-02-17T16:10:28.342Z,101237.38
2023-02-17T16:12:57.441Z,101238.88
2023-02-17T16:15:26.220Z,101246.53
2023-02-17T16:17:55.696Z,101242.06
2023-02-17T16:20:24.336Z,101241.34
2023-02-17T16:22:52.640Z,101239.19
2023-02-17T16:25:22.774Z,101225.84
2023-02-17T16:28:10.711Z,101239.41
2023-02-17T16:30:38.567Z,101244.91
2023-02-17T16:33:07.035Z,101233.78
2023-02-17T16:35:34.771Z,101234.59
2023-02-17T16:38:04.196Z,101245.28
2023-02-17T16:40:36.037Z,101252.03
2023-02-17T16:43:04.321Z,101258.84
2023-02-17T16:45:33.353Z,101250.38
2023-02-17T16:48:01.930Z,101254.03
2023-02-17T16:50:31.445Z,101256.44
2023-02-17T16:53:01.413Z,101263.00
2023-02-17T16:55:31.695Z,101267.88
2023-02-17T16:58:01.000Z,101268.78
2023-02-17T17:00:31.394Z,101273.16
2023-02-17T17:02:59.657Z,101266.13
2023-02-17T17:05:28.936Z,101266.13
2023-02-17T17:07:57.050Z,101267.81
2023-02-17T17:10:26.485Z,101260.31
2023-02-17T17:12:54.319Z,101256.53
2023-02-17T17:15:23.593Z,101260.22
2023-02-17T17:17:54.523Z,101265.19
2023-02-17T17:20:27.382Z,101268.41
2023-02-17T17:22:55.096Z,101263.19
2023-02-17T17:25:22.698Z,101263.19
2023-02-17T17:27:58.594Z,101261.78
2023-02-17T17:30:31.748Z,101252.75
2023-02-17T17:32:59.754Z,101249.94
2023-02-17T17:35:28.036Z,101257.16
2023-02-17T17:37:59.928Z,101265.34
2023-02-17T17:40:30.027Z,101264.88
2023-02-17T17:42:57.774Z,101276.66
2023-02-17T17:45:28.066Z,101277.34
2023-02-17T17:47:55.696Z,101282.47
2023-02-17T17:50:25.677Z,101278.31
2023-02-17T17:52:53.551Z,101289.19
2023-02-17T17:55:21.150Z,101288.53
2023-02-17T17:57:49.320Z,101296.38
2023-02-17T18:00:18.277Z,101309.06
2023-02-17T18:02:47.262Z,101310.03
2023-02-17T18:05:16.863Z,101313.59
2023-02-17T18:07:50.364Z,101324.69
2023-02-17T18:10:17.989Z,101327.53
2023-02-17T18:12:46.645Z,101331.63
2023-02-17T18:15:15.055Z,101339.63
2023-02-17T18:17:43.430Z,101339.28
2023-02-17T18:20:13.204Z,101339.09
2023-02-17T18:22:40.860Z,101352.66
2023-02-17T18:25:09.163Z,101356.69
2023-02-17T18:27:41.253Z,101357.13
2023-02-17T18:30:11.282Z,101364.16
2023-02-17T18:32:38.749Z,101368.91
2023-02-17T18:35:06.649Z,101373.66
2023-02-17T18:37:35.781Z,101366.72
2023-02-17T18:40:04.302Z,101366.47
2023-02-17T18:42:32.591Z,101369.97
2023-02-17T18:45:00.187Z,101371.22
2023-02-17T18:47:27.793Z,101385.41
2023-02-17T18:49:55.538Z,101379.97
2023-02-17T18:52:23.223Z,101387.00
2023-02-17T18:54:52.194Z,101394.00
2023-02-17T18:57:19.873Z,101388.44
2023-02-17T18:59:47.495Z,101395.84
2023-02-17T19:02:15.495Z,101392.94
2023-02-17T19:04:43.437Z,101395.81
2023-02-17T19:07:12.471Z,101403.84
2023-02-17T19:09:42.702Z,101408.19
2023-02-17T19:12:13.527Z,101405.34
2023-02-17T19:14:44.684Z,101416.50
2023-02-17T19:17:13.049Z,101412.19
2023-02-17T19:19:43.263Z,101410.16
2023-02-17T19:22:17.348Z,101417.94
2023-02-17T19:24:46.691Z,101419.09
2023-02-17T19:27:17.840Z,101423.66
2023-02-17T19:29:45.497Z,101415.44
2023-02-17T19:32:16.129Z,101422.81
2023-02-17T19:34:46.080Z,101417.81
2023-02-17T19:37:15.415Z,101418.84
2023-02-17T19:39:45.305Z,101426.69
2023-02-17T19:42:15.429Z,101420.66
2023-02-17T19:44:44.502Z,101418.16
2023-02-17T19:47:14.810Z,101421.97
2023-02-17T19:49:42.445Z,101420.72
2023-02-17T19:52:14.533Z,101426.34
2023-02-17T19:54:42.138Z,101422.88
2023-02-17T19:57:09.890Z,101429.16
2023-02-17T19:59:40.238Z,101429.88
2023-02-17T20:02:13.039Z,101425.88
2023-02-17T20:04:40.702Z,101436.78
2023-02-17T20:07:08.444Z,101442.13
2023-02-17T20:09:38.292Z,101439.63
2023-02-17T20:12:08.762Z,101443.84
2023-02-17T20:14:38.444Z,101440.53
2023-02-17T20:17:06.090Z,101448.72
2023-02-17T20:19:37.738Z,101449.75
2023-02-17T20:22:05.492Z,101452.41
2023-02-17T20:24:35.225Z,101453.09
2023-02-17T20:27:03.134Z,101454.41
2023-02-17T20:29:31.140Z,101459.28
2023-02-17T20:31:58.908Z,101444.94
2023-02-17T20:34:29.832Z,101460.16
2023-02-17T20:37:00.572Z,101444.94
2023-02-17T20:39:33.467Z,101443.63
2023-02-17T20:42:01.636Z,101447.16
2023-02-17T20:44:32.081Z,101441.63
2023-02-17T20:47:02.947Z,101435.47
2023-02-17T20:49:30.653Z,101434.84
2023-02-17T20:51:59.805Z,101440.81
2023-02-17T20:54:27.482Z,101435.13
2023-02-17T20:56:57.773Z,101442.13
2023-02-17T20:59:25.696Z,101441.63
2023-02-17T21:01:53.333Z,101444.47
2023-02-17T21:04:20.920Z,101447.13
2023-02-17T21:06:48.553Z,101450.09
2023-02-17T21:09:19.154Z,101451.28
2023-02-17T21:11:47.826Z,101447.59
2023-02-17T21:14:15.908Z,101452.94
2023-02-17T21:16:43.551Z,101458.72
2023-02-17T21:19:11.147Z,101453.72
2023-02-17T21:21:41.034Z,101460.47
2023-02-17T21:24:08.853Z,101462.00
2023-02-17T21:26:37.895Z,101459.53
2023-02-17T21:29:08.575Z,101454.78
2023-02-17T21:31:37.077Z,101461.47
2023-02-17T21:34:05.174Z,101470.69
2023-02-17T21:36:35.281Z,101462.16
2023-02-17T21:39:04.195Z,101472.97
2023-02-17T21:41:32.581Z,101462.97
2023-02-17T21:44:18.878Z,101460.97
2023-02-17T21:46:48.103Z,101466.16
2023-02-17T21:49:15.947Z,101464.84
2023-02-17T21:51:43.495Z,101458.88
2023-02-17T21:54:11.523Z,101462.00
2023-02-17T21:56:39.489Z,101459.53
2023-02-17T21:59:08.973Z,101455.38
2023-02-17T22:01:36.579Z,101457.38
2023-02-17T22:04:04.603Z,101459.00
2023-02-17T22:06:39.264Z,101465.38
2023-02-17T22:09:08.066Z,101458.72
2023-02-17T22:11:37.153Z,101457.63
2023-02-17T22:14:06.192Z,101463.66
2023-02-17T22:16:37.762Z,101460.16
2023-02-17T22:19:07.035Z,101458.97
2023-02-17T22:21:34.948Z,101464.13
2023-02-17T22:24:03.420Z,101457.81
2023-02-17T22:26:31.232Z,101470.59
2023-02-17T22:28:58.775Z,101469.13
2023-02-17T22:31:28.291Z,101458.78
2023-02-17T22:33:58.153Z,101470.31
2023-02-17T22:36:27.440Z,101470.81
2023-02-17T22:38:55.554Z,101469.59
2023-02-17T22:41:24.572Z,101467.66
2023-02-17T22:43:52.782Z,101466.84
2023-02-17T22:46:21.922Z,101462.47
2023-02-17T22:48:51.903Z,101451.63
2023-02-17T22:51:22.408Z,101463.97
2023-02-17T22:53:50.290Z,101455.72
2023-02-17T22:56:17.876Z,101456.41
2023-02-17T22:58:45.391Z,101460.94
2023-02-17T23:01:14.795Z,101456.63
2023-02-17T23:03:43.126Z,101463.78
2023-02-17T23:06:13.460Z,101459.81
2023-02-17T23:08:44.392Z,101457.47
2023-02-17T23:11:13.954Z,101460.78
2023-02-17T23:13:41.762Z,101462.97
2023-02-17T23:16:11.704Z,101458.63
2023-02-17T23:18:39.393Z,101466.50
2023-02-17T23:21:12.442Z,101468.66
2023-02-17T23:23:40.350Z,101475.50
2023-02-17T23:26:09.603Z,101472.47
2023-02-17T23:28:37.411Z,101473.84
2023-02-17T23:31:05.060Z,101481.16
2023-02-17T23:33:32.546Z,101473.63
2023-02-17T23:36:00.054Z,101475.81
2023-02-17T23:38:27.532Z,101474.00
2023-02-17T23:40:56.138Z,101476.66
2023-02-17T23:43:25.202Z,101470.34
2023-02-17T23:45:56.214Z,101473.50
2023-02-17T23:48:23.810Z,101479.84
2023-02-17T23:50:56.509Z,101473.31
2023-02-17T23:53:24.197Z,101465.16
2023-02-17T23:56:01.312Z,101456.50
2023-02-17T23:58:30.212Z,101458.19
